Manchester, TN

12:17 AM CST on January 27, 2015 (GMT -0600)
Manchester TN | Change Station
CLOSE
Current Station
Personal Weather Station
Location: Manchester, TN
Elevation: 1037 ft
Nearby Weather Stations
Active Advisory: Special Statement

Elev 1037 ft 35.48 °N, 86.09 °W | Updated 14 minutes ago

Overcast
Overcast
32.6 °F
Feels Like 33 °F
N
1.0
Wind Variable Wind from SSE
Gusts 4.0 mph

Today
High -- | Low -- °F
--% Chance of Precip.
Yesterday
High -- | Low -- °F
Precip. -- in
6:47 AM 5:06 PM
Waxing Crescent, 51% visible
Pressure 29.92 in
Visibility 9.0 miles
Clouds Overcast 4600 ft
Windchill 33 °F
Dew Point 30 °F
Humidity 91%
Rainfall 0.00 in
Snow Depth Not available.
UV 0 out of 12
Pollen .30 out of 12
Air Quality Not available.
Flu Activity Not available.
METAR KTHA 270555Z AUTO 00000KT 9SM OVC046 00/M01 A2992 RMK

More Conditions Fewer Conditions

Pressure 29.92 in
Visibility 9.0 miles
Clouds Overcast 4600 ft
Windchill 33 °F
Dew Point 30 °F
Humidity 91%
Rainfall 0.00 in
Snow Depth Not available.
UV 0 out of 12
Pollen .30 out of 12
Air Quality Not available.
Flu Activity Not available.
METAR KTHA 270555Z AUTO 00000KT 9SM OVC046 00/M01 A2992 RMK

More Conditions Fewer Conditions

10-Day Weather Forecast

Almanac

Astronomy

Jan. 27, 2015 Rise Set
Actual Time
Civil Twilight
Nautical Twilight
Astronomical Twilight
Moon
Length of Visible Light
Length of Day
Tomorrow will be .
, % of the Moon is Illuminated

Today's Extremes

State Highs State Lows

Community

WunderPhotos

Upload Photos

1,790,542 photos uploaded!

WunderBlogs® & News

Nearby

Air Quality

  Air Quality AQ Index Pollutant
Not available.

Snow Depth

Station Depth Elevation

Earthquake Activity

City Distance Mag. Time & Date
Minimum magnitude displayed is 2.5.

Coastal Water Temperatures

Place Temperature

Nearby Weather Stations